Time;durP1;ratioP1;P1;durP2;ratioP2;P2;SDS_P1;SDS_P2;PMS_P1;PMS_P2;Temp;Humidity;BMP_temperature;BMP_pressure;BME280_temperature;BME280_humidity;BME280_pressure;Samples;Min_cycle;Max_cycle;Signal;HPM_P1;HPM_P2
2021/07/03 00:00:32;;;;;;;3.60;3.40;;;;;;;;;;6247254;23;20004;-60
2021/07/03 00:02:58;;;;;;;3.63;3.38;;;;;;;;;;6247275;23;20054;-59
2021/07/03 00:05:24;;;;;;;3.72;3.42;;;;;;;;;;6220124;23;20014;-60
2021/07/03 00:07:49;;;;;;;4.28;3.97;;;;;;;;;;6246705;23;20024;-60
2021/07/03 00:10:15;;;;;;;4.05;3.75;;;;;;;;;;6247184;23;20015;-60
2021/07/03 00:12:40;;;;;;;4.38;3.58;;;;;;;;;;6246570;23;20066;-60
2021/07/03 00:15:08;;;;;;;6.32;3.83;;;;;;;;;;6247090;23;20012;-60
2021/07/03 00:17:34;;;;;;;3.97;3.67;;;;;;;;;;6247166;23;20000;-60
2021/07/03 00:19:59;;;;;;;3.72;3.53;;;;;;;;;;6247074;23;20395;-60
2021/07/03 00:22:24;;;;;;;4.30;4.00;;;;;;;;;;6246784;23;19996;-60
2021/07/03 00:24:50;;;;;;;3.55;3.35;;;;;;;;;;6219857;23;20008;-60
2021/07/03 00:27:16;;;;;;;4.00;3.70;;;;;;;;;;6246979;23;20074;-60
2021/07/03 00:29:42;;;;;;;4.20;3.90;;;;;;;;;;6247045;23;20083;-60
2021/07/03 00:32:07;;;;;;;3.67;3.47;;;;;;;;;;6246930;23;20368;-60
2021/07/03 00:34:33;;;;;;;4.32;3.45;;;;;;;;;;6220203;23;20000;-60
2021/07/03 00:36:58;;;;;;;3.83;3.28;;;;;;;;;;6246887;23;20023;-60
2021/07/03 00:39:25;;;;;;;4.13;3.58;;;;;;;;;;6219986;23;20385;-60
2021/07/03 00:41:51;;;;;;;3.78;3.55;;;;;;;;;;6246880;23;20420;-60
2021/07/03 00:44:30;;;;;;;3.53;3.22;;;;;;;;;;6246707;23;20011;-60
2021/07/03 00:47:00;;;;;;;3.70;3.40;;;;;;;;;;6246749;23;20008;-60
2021/07/03 00:49:26;;;;;;;3.88;3.42;;;;;;;;;;6219762;23;20070;-60
2021/07/03 00:51:52;;;;;;;3.53;3.15;;;;;;;;;;6246831;23;20008;-60
2021/07/03 00:54:21;;;;;;;3.50;3.30;;;;;;;;;;6246677;23;20000;-60
2021/07/03 00:56:48;;;;;;;3.90;3.60;;;;;;;;;;6219861;23;20095;-60
2021/07/03 00:59:15;;;;;;;3.90;3.58;;;;;;;;;;6246574;23;19996;-60
2021/07/03 01:01:40;;;;;;;3.72;3.42;;;;;;;;;;6246466;23;20459;-60
2021/07/03 01:04:05;;;;;;;3.88;3.58;;;;;;;;;;6246781;23;20015;-60
2021/07/03 01:06:31;;;;;;;3.95;3.65;;;;;;;;;;6246542;23;20011;-60
2021/07/03 01:08:57;;;;;;;3.60;3.40;;;;;;;;;;6219603;23;20054;-60
2021/07/03 01:11:24;;;;;;;3.83;3.53;;;;;;;;;;6219830;23;20035;-60
2021/07/03 01:13:52;;;;;;;4.65;4.10;;;;;;;;;;6219896;23;20340;-60
2021/07/03 01:16:19;;;;;;;3.78;3.42;;;;;;;;;;6219656;23;20348;-60
2021/07/03 01:18:45;;;;;;;4.28;3.88;;;;;;;;;;6219582;23;20028;-60
2021/07/03 01:21:13;;;;;;;4.32;3.95;;;;;;;;;;6246363;23;20073;-60
2021/07/03 01:23:39;;;;;;;4.25;3.85;;;;;;;;;;6246215;23;19996;-60
2021/07/03 01:26:05;;;;;;;4.82;4.18;;;;;;;;;;6246483;23;20027;-60
2021/07/03 01:28:36;;;;;;;4.88;4.22;;;;;;;;;;6219736;23;20079;-60
2021/07/03 01:31:03;;;;;;;4.18;3.88;;;;;;;;;;6219411;23;20032;-60
2021/07/03 01:33:31;;;;;;;4.65;4.35;;;;;;;;;;6219585;23;20004;-60
2021/07/03 01:35:57;;;;;;;4.53;4.22;;;;;;;;;;6246198;23;20011;-60
2021/07/03 01:38:24;;;;;;;3.92;3.63;;;;;;;;;;6219454;23;20000;-60
2021/07/03 01:40:54;;;;;;;4.47;4.07;;;;;;;;;;6219571;23;20383;-60
2021/07/03 01:43:26;;;;;;;4.45;4.15;;;;;;;;;;6219328;23;20008;-60
2021/07/03 01:45:54;;;;;;;4.65;4.28;;;;;;;;;;6246181;23;20004;-60
2021/07/03 01:48:27;;;;;;;5.22;4.63;;;;;;;;;;6219287;23;20028;-60
2021/07/03 01:50:54;;;;;;;4.47;4.07;;;;;;;;;;6246151;23;20011;-60
2021/07/03 01:53:20;;;;;;;4.63;4.22;;;;;;;;;;6246207;23;20007;-60
2021/07/03 01:55:46;;;;;;;6.07;4.43;;;;;;;;;;6219421;23;20016;-60
2021/07/03 01:58:22;;;;;;;4.32;4.03;;;;;;;;;;6218993;23;20000;-60
2021/07/03 02:01:00;;;;;;;5.07;4.50;;;;;;;;;;6195957;23;20012;-60
2021/07/03 02:03:28;;;;;;;3.75;3.45;;;;;;;;;;6219240;23;20332;-60
2021/07/03 02:05:54;;;;;;;4.47;4.18;;;;;;;;;;6219288;23;19996;-60
2021/07/03 02:08:23;;;;;;;5.15;4.35;;;;;;;;;;6245876;23;20492;-60
2021/07/03 02:10:59;;;;;;;4.80;4.20;;;;;;;;;;6219309;23;20000;-60
2021/07/03 02:13:26;;;;;;;4.30;3.90;;;;;;;;;;6219064;23;20091;-60
2021/07/03 02:15:53;;;;;;;4.68;4.20;;;;;;;;;;6219149;23;20024;-60
2021/07/03 02:18:26;;;;;;;4.78;4.40;;;;;;;;;;6219210;23;20020;-60
2021/07/03 02:20:52;;;;;;;4.53;4.18;;;;;;;;;;6194175;23;20004;-60
2021/07/03 02:23:23;;;;;;;;;;;;;;;;;;6219530;23;20023;-60
2021/07/03 02:25:52;;;;;;;4.80;4.40;;;;;;;;;;6246010;23;19903;-60
2021/07/03 02:28:23;;;;;;;;;;;;;;;;;;6219581;23;20000;-60
2021/07/03 02:30:56;;;;;;;4.47;4.20;;;;;;;;;;6219023;23;19913;-60
2021/07/03 02:33:21;;;;;;;5.15;4.72;;;;;;;;;;6219090;23;20099;-60
2021/07/03 02:35:49;;;;;;;5.47;5.07;;;;;;;;;;6219157;23;20416;-60
2021/07/03 02:38:17;;;;;;;5.97;4.72;;;;;;;;;;6218928;23;20062;-60
2021/07/03 02:40:45;;;;;;;5.88;5.38;;;;;;;;;;6219249;23;20082;-60
2021/07/03 02:43:12;;;;;;;6.25;5.60;;;;;;;;;;6245990;23;20016;-60
2021/07/03 02:45:39;;;;;;;5.97;5.35;;;;;;;;;;6219222;23;20337;-60
2021/07/03 02:48:04;;;;;;;6.68;6.07;;;;;;;;;;6220578;23;20004;-60
2021/07/03 02:50:30;;;;;;;5.80;5.22;;;;;;;;;;6221044;23;20046;-60
2021/07/03 02:52:59;;;;;;;6.78;5.97;;;;;;;;;;6221129;23;20015;-60
2021/07/03 02:55:27;;;;;;;6.75;6.10;;;;;;;;;;6247707;23;20006;-60
2021/07/03 02:57:53;;;;;;;6.07;5.57;;;;;;;;;;6221022;23;20015;-60
2021/07/03 03:00:20;;;;;;;6.20;5.63;;;;;;;;;;6220940;23;20008;-60
2021/07/03 03:02:50;;;;;;;6.60;5.85;;;;;;;;;;6221134;23;20004;-60
2021/07/03 03:05:17;;;;;;;8.77;6.53;;;;;;;;;;6220891;23;20007;-60
2021/07/03 03:07:43;;;;;;;7.68;6.50;;;;;;;;;;6221120;23;20009;-60
2021/07/03 03:10:11;;;;;;;6.95;6.25;;;;;;;;;;6247626;23;20050;-60
2021/07/03 03:12:39;;;;;;;7.68;6.72;;;;;;;;;;6246945;23;20019;-60
2021/07/03 03:15:07;;;;;;;8.05;6.70;;;;;;;;;;6196148;23;20035;-60
2021/07/03 03:17:33;;;;;;;7.35;6.57;;;;;;;;;;6247584;23;20332;-60
2021/07/03 03:19:59;;;;;;;7.28;6.60;;;;;;;;;;6220868;23;20130;-60
2021/07/03 03:22:25;;;;;;;6.63;6.07;;;;;;;;;;6220611;23;20004;-60
2021/07/03 03:24:51;;;;;;;6.88;6.18;;;;;;;;;;6220906;23;19992;-60
2021/07/03 03:27:16;;;;;;;6.60;6.00;;;;;;;;;;6220783;23;20001;-60
2021/07/03 03:29:45;;;;;;;7.07;6.22;;;;;;;;;;6220729;23;20351;-60
2021/07/03 03:32:11;;;;;;;6.80;6.20;;;;;;;;;;6247380;23;20004;-60
2021/07/03 03:34:36;;;;;;;7.32;6.63;;;;;;;;;;6220636;23;20416;-60
2021/07/03 03:37:03;;;;;;;6.28;5.80;;;;;;;;;;6247513;23;20008;-60
2021/07/03 03:39:31;;;;;;;7.63;6.65;;;;;;;;;;6195904;23;20332;-60
2021/07/03 03:41:57;;;;;;;7.60;6.80;;;;;;;;;;6220517;23;20000;-60
2021/07/03 03:44:23;;;;;;;6.15;5.63;;;;;;;;;;6220375;23;20058;-60
2021/07/03 03:46:52;;;;;;;6.35;5.72;;;;;;;;;;6220254;23;20027;-60
2021/07/03 03:49:20;;;;;;;7.03;5.78;;;;;;;;;;6220743;23;20329;-60
2021/07/03 03:51:49;;;;;;;6.38;5.78;;;;;;;;;;6247377;23;20425;-60
2021/07/03 03:54:15;;;;;;;6.32;5.80;;;;;;;;;;6220451;23;20008;-60
2021/07/03 03:56:41;;;;;;;6.28;5.63;;;;;;;;;;6220315;23;20008;-60
2021/07/03 03:59:07;;;;;;;5.88;5.43;;;;;;;;;;6219613;23;20007;-60
2021/07/03 04:01:33;;;;;;;6.18;5.60;;;;;;;;;;6220294;23;20099;-60
2021/07/03 04:03:59;;;;;;;6.10;5.57;;;;;;;;;;6220364;23;20000;-60
2021/07/03 04:06:25;;;;;;;6.38;5.88;;;;;;;;;;6220268;23;20004;-60
2021/07/03 04:08:51;;;;;;;6.03;5.40;;;;;;;;;;6220391;23;20313;-60
2021/07/03 04:11:16;;;;;;;7.00;5.72;;;;;;;;;;6246987;23;20019;-60
2021/07/03 04:13:41;;;;;;;6.45;5.68;;;;;;;;;;6246952;23;20071;-60
2021/07/03 04:16:07;;;;;;;6.25;5.50;;;;;;;;;;6247066;23;20054;-60
2021/07/03 04:18:32;;;;;;;6.32;5.78;;;;;;;;;;6247123;23;20000;-60
2021/07/03 04:20:59;;;;;;;6.03;5.43;;;;;;;;;;6247090;23;20015;-60
2021/07/03 04:23:25;;;;;;;6.50;5.90;;;;;;;;;;6220172;23;20000;-60
2021/07/03 04:25:50;;;;;;;5.95;5.40;;;;;;;;;;6246871;23;20060;-60
2021/07/03 04:28:16;;;;;;;6.10;5.45;;;;;;;;;;6220085;23;20083;-60
2021/07/03 04:30:41;;;;;;;6.00;5.40;;;;;;;;;;6246889;23;20000;-60
2021/07/03 04:33:07;;;;;;;6.05;5.55;;;;;;;;;;6246827;23;20000;-60
2021/07/03 04:35:32;;;;;;;6.90;5.68;;;;;;;;;;6246946;23;20424;-60
2021/07/03 04:37:59;;;;;;;5.53;5.03;;;;;;;;;;6220051;23;20034;-60
2021/07/03 04:40:24;;;;;;;6.60;5.32;;;;;;;;;;6246323;23;20008;-60
2021/07/03 04:42:50;;;;;;;5.22;4.72;;;;;;;;;;6246712;23;20011;-60
2021/07/03 04:45:20;;;;;;;8.40;5.40;;;;;;;;;;6219978;23;20008;-60
2021/07/03 04:47:47;;;;;;;5.90;5.40;;;;;;;;;;6246770;23;20062;-60
2021/07/03 04:50:13;;;;;;;7.95;5.57;;;;;;;;;;6219793;23;20375;-60
2021/07/03 04:52:39;;;;;;;4.95;4.55;;;;;;;;;;6246652;23;20000;-60
2021/07/03 04:55:06;;;;;;;5.38;4.97;;;;;;;;;;6246690;23;20011;-60
2021/07/03 04:57:32;;;;;;;4.78;4.38;;;;;;;;;;6219961;23;20428;-60
2021/07/03 04:59:57;;;;;;;5.78;5.03;;;;;;;;;;6246666;23;20424;-60
2021/07/03 05:02:24;;;;;;;5.03;4.53;;;;;;;;;;6246622;23;20050;-60
2021/07/03 05:04:49;;;;;;;5.00;4.47;;;;;;;;;;6246455;23;20007;-60
2021/07/03 05:07:15;;;;;;;4.20;3.72;;;;;;;;;;6246561;23;19996;-60
2021/07/03 05:10:06;;;;;;;5.20;4.80;;;;;;;;;;6220890;23;20016;-60
2021/07/03 05:12:32;;;;;;;4.43;3.83;;;;;;;;;;6245909;23;20094;-60
2021/07/03 05:14:58;;;;;;;5.05;4.63;;;;;;;;;;6246660;23;20004;-60
2021/07/03 05:17:23;;;;;;;4.95;4.45;;;;;;;;;;6246565;23;20059;-60
2021/07/03 05:19:49;;;;;;;4.45;4.05;;;;;;;;;;6246503;23;19999;-60
2021/07/03 05:22:14;;;;;;;4.63;4.15;;;;;;;;;;6246339;23;20019;-60
2021/07/03 05:24:40;;;;;;;6.30;4.30;;;;;;;;;;6246444;23;20451;-60
2021/07/03 05:27:05;;;;;;;5.00;4.50;;;;;;;;;;6246421;23;20157;-60
2021/07/03 05:29:30;;;;;;;5.93;4.32;;;;;;;;;;6246385;23;20000;-60
2021/07/03 05:31:56;;;;;;;4.72;4.32;;;;;;;;;;6246355;23;20004;-60
2021/07/03 05:34:21;;;;;;;4.35;3.97;;;;;;;;;;6246310;23;20000;-60
2021/07/03 05:36:48;;;;;;;4.75;4.35;;;;;;;;;;6219414;23;20094;-60
2021/07/03 05:39:14;;;;;;;5.55;4.57;;;;;;;;;;6246210;23;20083;-60
2021/07/03 05:41:39;;;;;;;4.20;3.40;;;;;;;;;;6246320;23;20372;-60
2021/07/03 05:44:05;;;;;;;4.30;4.00;;;;;;;;;;6246260;23;20004;-60
2021/07/03 05:46:30;;;;;;;4.72;3.83;;;;;;;;;;6219651;23;20000;-60
2021/07/03 05:48:56;;;;;;;4.90;4.03;;;;;;;;;;6246203;23;20000;-60
2021/07/03 05:51:25;;;;;;;6.35;3.45;;;;;;;;;;6246296;23;20000;-60
2021/07/03 05:53:51;;;;;;;4.22;3.88;;;;;;;;;;6246213;23;20004;-60
2021/07/03 05:56:17;;;;;;;4.25;3.95;;;;;;;;;;6245966;23;20054;-60
2021/07/03 05:58:42;;;;;;;3.90;3.60;;;;;;;;;;6245970;23;20421;-60
2021/07/03 06:01:07;;;;;;;4.07;3.25;;;;;;;;;;6246108;23;20336;-60
2021/07/03 06:03:33;;;;;;;4.25;4.00;;;;;;;;;;6246058;23;20000;-60
2021/07/03 06:05:58;;;;;;;6.28;4.20;;;;;;;;;;6246073;23;20424;-60
2021/07/03 06:08:24;;;;;;;4.88;4.05;;;;;;;;;;6246169;23;20000;-60
2021/07/03 06:10:49;;;;;;;4.30;3.90;;;;;;;;;;6246102;23;20000;-60
2021/07/03 06:13:15;;;;;;;4.65;3.83;;;;;;;;;;6245461;23;20016;-60
2021/07/03 06:15:40;;;;;;;3.88;3.58;;;;;;;;;;6245995;23;20039;-60
2021/07/03 06:18:06;;;;;;;5.18;4.43;;;;;;;;;;6246038;23;20490;-60
2021/07/03 06:20:31;;;;;;;4.50;4.07;;;;;;;;;;6245963;23;20494;-60
2021/07/03 06:22:56;;;;;;;4.82;3.83;;;;;;;;;;6245522;23;20031;-60
2021/07/03 06:25:22;;;;;;;11.02;5.50;;;;;;;;;;6246056;23;20424;-60
2021/07/03 06:27:47;;;;;;;8.90;4.53;;;;;;;;;;6246103;23;19999;-60
2021/07/03 06:30:15;;;;;;;3.85;3.55;;;;;;;;;;6246385;23;20471;-60
2021/07/03 06:32:40;;;;;;;7.03;4.90;;;;;;;;;;6245930;23;20004;-60
2021/07/03 06:35:06;;;;;;;4.15;3.75;;;;;;;;;;6245819;23;20432;-60
2021/07/03 06:37:32;;;;;;;6.47;4.13;;;;;;;;;;6219024;23;20083;-60
2021/07/03 06:39:59;;;;;;;5.55;3.85;;;;;;;;;;6245969;23;20023;-60
2021/07/03 06:42:24;;;;;;;5.25;3.90;;;;;;;;;;6245812;23;19996;-60
2021/07/03 06:44:50;;;;;;;6.63;3.42;;;;;;;;;;6245786;23;20027;-60
2021/07/03 06:47:15;;;;;;;4.13;3.72;;;;;;;;;;6245762;23;20042;-60
2021/07/03 06:49:41;;;;;;;6.05;4.00;;;;;;;;;;6245799;23;20005;-60
2021/07/03 06:52:09;;;;;;;4.28;3.88;;;;;;;;;;6245724;23;20324;-60
2021/07/03 06:54:34;;;;;;;4.28;3.90;;;;;;;;;;6245753;23;20031;-60
2021/07/03 06:57:00;;;;;;;7.38;4.38;;;;;;;;;;6245777;23;20416;-60
2021/07/03 06:59:27;;;;;;;3.58;3.28;;;;;;;;;;6245699;23;20097;-60
2021/07/03 07:01:53;;;;;;;5.30;3.47;;;;;;;;;;6245849;23;19996;-60
2021/07/03 07:04:21;;;;;;;6.57;3.90;;;;;;;;;;6245783;23;20004;-60
2021/07/03 07:06:54;;;;;;;4.18;3.78;;;;;;;;;;6245866;23;20329;-60
2021/07/03 07:09:22;;;;;;;6.30;3.90;;;;;;;;;;6245780;23;20420;-60
2021/07/03 07:11:47;;;;;;;7.28;4.00;;;;;;;;;;6245478;23;19992;-60
2021/07/03 07:14:13;;;;;;;3.35;3.13;;;;;;;;;;6245838;23;20012;-60
2021/07/03 07:16:39;;;;;;;3.72;3.42;;;;;;;;;;6245765;23;20455;-60
2021/07/03 07:19:06;;;;;;;6.35;3.92;;;;;;;;;;6245768;23;20394;-60
2021/07/03 07:21:32;;;;;;;5.13;3.85;;;;;;;;;;6218675;23;20344;-60
2021/07/03 07:23:58;;;;;;;3.55;3.25;;;;;;;;;;6245556;23;20432;-60
2021/07/03 07:26:26;;;;;;;3.80;3.50;;;;;;;;;;6245586;23;19997;-60
2021/07/03 07:28:52;;;;;;;4.50;3.72;;;;;;;;;;6245657;23;20536;-60
2021/07/03 07:31:18;;;;;;;10.25;4.82;;;;;;;;;;6245518;23;20020;-60
2021/07/03 07:33:44;;;;;;;4.80;3.80;;;;;;;;;;6246462;23;20015;-60
2021/07/03 07:36:10;;;;;;;4.25;3.88;;;;;;;;;;6247476;23;20000;-60
2021/07/03 07:38:35;;;;;;;4.22;3.83;;;;;;;;;;6247371;23;20432;-60
2021/07/03 07:41:01;;;;;;;4.00;3.53;;;;;;;;;;6247594;23;20075;-60
2021/07/03 07:43:26;;;;;;;5.25;3.92;;;;;;;;;;6247485;23;20008;-60
2021/07/03 07:45:55;;;;;;;5.43;4.15;;;;;;;;;;6247410;23;19997;-60
2021/07/03 07:48:20;;;;;;;7.05;3.88;;;;;;;;;;6247483;23;20001;-60
2021/07/03 07:50:46;;;;;;;3.67;3.38;;;;;;;;;;6247340;23;20336;-60
2021/07/03 07:53:11;;;;;;;5.57;3.80;;;;;;;;;;6247391;23;20428;-60
2021/07/03 07:55:37;;;;;;;3.75;2.92;;;;;;;;;;6247293;23;20365;-60
2021/07/03 07:58:02;;;;;;;4.78;3.90;;;;;;;;;;6247254;23;20337;-60
2021/07/03 08:00:28;;;;;;;4.03;3.67;;;;;;;;;;6247244;23;20024;-60
2021/07/03 08:02:54;;;;;;;4.25;3.88;;;;;;;;;;6247159;23;20494;-60
2021/07/03 08:05:20;;;;;;;3.90;3.53;;;;;;;;;;6247108;23;19992;-60
2021/07/03 08:07:45;;;;;;;6.18;4.15;;;;;;;;;;6247245;23;20008;-60
2021/07/03 08:10:12;;;;;;;4.13;3.67;;;;;;;;;;6247040;23;20079;-60
2021/07/03 08:12:38;;;;;;;5.00;3.75;;;;;;;;;;6246307;23;20016;-60
2021/07/03 08:15:04;;;;;;;3.88;3.58;;;;;;;;;;6247003;23;20004;-60
2021/07/03 08:17:30;;;;;;;4.13;3.72;;;;;;;;;;6247154;23;20421;-60
2021/07/03 08:19:55;;;;;;;5.38;3.70;;;;;;;;;;6246958;23;20047;-60
2021/07/03 08:22:21;;;;;;;5.85;3.63;;;;;;;;;;6246897;23;20008;-60
2021/07/03 08:24:46;;;;;;;5.75;3.92;;;;;;;;;;6220156;23;20050;-60
2021/07/03 08:27:12;;;;;;;4.50;4.13;;;;;;;;;;6247008;23;20007;-60
2021/07/03 08:29:37;;;;;;;4.75;3.80;;;;;;;;;;6246956;23;19992;-60
2021/07/03 08:32:03;;;;;;;3.78;3.53;;;;;;;;;;6246888;23;20008;-60
2021/07/03 08:34:28;;;;;;;5.68;4.18;;;;;;;;;;6220034;23;20032;-60
2021/07/03 08:36:53;;;;;;;5.03;4.50;;;;;;;;;;6246877;23;20007;-60
2021/07/03 08:39:19;;;;;;;7.55;4.28;;;;;;;;;;6220085;23;20000;-60
2021/07/03 08:41:44;;;;;;;4.57;4.18;;;;;;;;;;6246741;23;20008;-60
2021/07/03 08:44:12;;;;;;;4.72;4.07;;;;;;;;;;6246502;23;20381;-60
2021/07/03 08:46:38;;;;;;;4.68;3.50;;;;;;;;;;6246493;23;20436;-60
2021/07/03 08:49:04;;;;;;;4.28;3.88;;;;;;;;;;6246696;23;20000;-60
2021/07/03 08:51:30;;;;;;;4.85;4.20;;;;;;;;;;6246669;23;20031;-60
2021/07/03 08:53:55;;;;;;;4.32;4.03;;;;;;;;;;6246789;23;20003;-60
2021/07/03 08:56:21;;;;;;;4.38;4.03;;;;;;;;;;6246810;23;20444;-60
2021/07/03 08:58:46;;;;;;;4.78;4.25;;;;;;;;;;6246719;23;20027;-60
2021/07/03 09:01:12;;;;;;;4.85;4.05;;;;;;;;;;6246701;23;20090;-60
2021/07/03 09:03:38;;;;;;;4.50;4.10;;;;;;;;;;6219755;23;20344;-60
2021/07/03 09:06:04;;;;;;;4.50;4.10;;;;;;;;;;6246581;23;20000;-60
2021/07/03 09:08:30;;;;;;;4.80;4.40;;;;;;;;;;6246360;23;20000;-60
2021/07/03 09:10:58;;;;;;;4.13;3.72;;;;;;;;;;6246520;23;20481;-60
2021/07/03 09:13:24;;;;;;;5.38;4.13;;;;;;;;;;6245892;23;20095;-60
2021/07/03 09:15:49;;;;;;;6.60;4.25;;;;;;;;;;6246561;23;20105;-60
2021/07/03 09:18:16;;;;;;;4.55;3.95;;;;;;;;;;6246563;23;20042;-60
2021/07/03 09:20:42;;;;;;;5.35;4.43;;;;;;;;;;6246397;23;20058;-60
2021/07/03 09:23:08;;;;;;;5.05;3.67;;;;;;;;;;6246268;23;19996;-60
2021/07/03 09:25:35;;;;;;;4.53;3.95;;;;;;;;;;6219760;23;20012;-60
2021/07/03 09:28:30;;;;;;;6.95;4.13;;;;;;;;;;6246504;23;19999;-60
2021/07/03 09:30:57;;;;;;;4.32;3.33;;;;;;;;;;6214596;23;20008;-60
2021/07/03 09:33:26;;;;;;;4.90;3.70;;;;;;;;;;6246460;23;20003;-60
2021/07/03 09:35:58;;;;;;;4.18;3.83;;;;;;;;;;6246381;23;20004;-60
2021/07/03 09:38:30;;;;;;;4.70;3.60;;;;;;;;;;6219549;23;20079;-60
2021/07/03 09:41:09;;;;;;;3.58;3.35;;;;;;;;;;6246461;23;20087;-60
2021/07/03 09:43:35;;;;;;;4.45;3.22;;;;;;;;;;6246281;23;20099;-60
2021/07/03 09:46:01;;;;;;;4.22;3.90;;;;;;;;;;6194212;23;19995;-60
2021/07/03 09:48:26;;;;;;;3.78;3.47;;;;;;;;;;6246037;23;20421;-60
2021/07/03 09:50:52;;;;;;;4.28;3.95;;;;;;;;;;6246167;23;19996;-60
2021/07/03 09:53:19;;;;;;;4.35;3.55;;;;;;;;;;6246175;23;20008;-60
2021/07/03 09:55:44;;;;;;;3.88;3.60;;;;;;;;;;6246041;23;20007;-60
2021/07/03 09:58:10;;;;;;;4.75;4.00;;;;;;;;;;6245656;23;20039;-60
2021/07/03 10:00:36;;;;;;;4.50;3.22;;;;;;;;;;6246135;23;20004;-60
2021/07/03 10:03:03;;;;;;;5.72;4.05;;;;;;;;;;6246018;23;20015;-60
2021/07/03 10:05:29;;;;;;;4.13;3.70;;;;;;;;;;6245890;23;20020;-60
2021/07/03 10:08:09;;;;;;;4.30;3.65;;;;;;;;;;6219503;23;20336;-60
2021/07/03 10:10:36;;;;;;;4.53;4.22;;;;;;;;;;6219250;23;20086;-60
2021/07/03 10:13:04;;;;;;;3.88;3.40;;;;;;;;;;6245516;23;20012;-60
2021/07/03 10:15:32;;;;;;;4.40;4.00;;;;;;;;;;6246061;23;20451;-60
2021/07/03 10:18:09;;;;;;;5.28;4.05;;;;;;;;;;6245978;23;20000;-60
2021/07/03 10:20:34;;;;;;;4.97;4.57;;;;;;;;;;6245985;23;20008;-60
2021/07/03 10:23:00;;;;;;;5.22;4.75;;;;;;;;;;6246048;23;20000;-60
2021/07/03 10:25:31;;;;;;;5.70;4.40;;;;;;;;;;6245995;23;20079;-60
2021/07/03 10:27:58;;;;;;;5.55;4.68;;;;;;;;;;6246073;23;20035;-60
2021/07/03 10:30:25;;;;;;;4.93;4.03;;;;;;;;;;6245811;23;19996;-60
2021/07/03 10:32:57;;;;;;;4.40;3.45;;;;;;;;;;6245824;23;20047;-60
2021/07/03 10:35:23;;;;;;;4.53;4.13;;;;;;;;;;6218978;23;20450;-60
2021/07/03 10:37:49;;;;;;;4.40;4.00;;;;;;;;;;6245851;23;20082;-60
2021/07/03 10:40:16;;;;;;;6.78;4.70;;;;;;;;;;6245838;23;20083;-60
2021/07/03 10:42:41;;;;;;;4.53;4.15;;;;;;;;;;6219187;23;19996;-60
2021/07/03 10:45:11;;;;;;;5.32;4.82;;;;;;;;;;6245804;23;20379;-60
2021/07/03 10:47:36;;;;;;;4.87;4.30;;;;;;;;;;6245825;23;20035;-60
2021/07/03 10:50:05;;;;;;;6.10;4.18;;;;;;;;;;6245831;23;20000;-60
2021/07/03 10:52:37;;;;;;;6.43;4.70;;;;;;;;;;6245776;23;20071;-60
2021/07/03 10:55:03;;;;;;;5.03;4.63;;;;;;;;;;6245786;23;20004;-60
2021/07/03 10:57:28;;;;;;;8.80;4.82;;;;;;;;;;6245869;23;19999;-60
2021/07/03 11:00:01;;;;;;;4.95;4.38;;;;;;;;;;6245853;23;20059;-60
2021/07/03 11:02:31;;;;;;;5.72;4.90;;;;;;;;;;6245648;23;20051;-60
2021/07/03 11:04:56;;;;;;;9.27;5.03;;;;;;;;;;6245798;23;20063;-60
2021/07/03 11:07:26;;;;;;;7.60;4.38;;;;;;;;;;6245733;23;20028;-60
2021/07/03 11:09:52;;;;;;;4.93;4.57;;;;;;;;;;6247698;23;20000;-60
2021/07/03 11:12:18;;;;;;;5.13;4.55;;;;;;;;;;6247373;23;20015;-60
2021/07/03 11:14:54;;;;;;;5.90;4.85;;;;;;;;;;6248084;23;20010;-60
2021/07/03 11:17:21;;;;;;;4.95;4.30;;;;;;;;;;6247932;23;20016;-60
2021/07/03 11:19:48;;;;;;;5.93;5.15;;;;;;;;;;6247752;23;20027;-60
2021/07/03 11:22:14;;;;;;;6.60;5.13;;;;;;;;;;6220771;23;20008;-60
2021/07/03 11:24:41;;;;;;;5.55;5.15;;;;;;;;;;6247522;23;20053;-60
2021/07/03 11:27:06;;;;;;;5.40;4.38;;;;;;;;;;6247612;23;20149;-60
2021/07/03 11:29:31;;;;;;;5.93;4.68;;;;;;;;;;6247435;23;19992;-60
2021/07/03 11:32:05;;;;;;;6.78;5.00;;;;;;;;;;6247562;23;20335;-60
2021/07/03 11:34:31;;;;;;;5.20;4.80;;;;;;;;;;6247607;23;20004;-60
2021/07/03 11:36:56;;;;;;;4.93;4.53;;;;;;;;;;6247479;23;20004;-60
2021/07/03 11:39:22;;;;;;;5.22;4.72;;;;;;;;;;6247345;23;20048;-60
2021/07/03 11:41:47;;;;;;;5.13;4.65;;;;;;;;;;6247313;23;19996;-60
2021/07/03 11:44:12;;;;;;;5.90;5.15;;;;;;;;;;6247285;23;20031;-60
2021/07/03 11:46:38;;;;;;;5.65;5.13;;;;;;;;;;6247428;23;20003;-60
2021/07/03 11:49:04;;;;;;;5.63;4.43;;;;;;;;;;6247401;23;20024;-60
2021/07/03 11:51:29;;;;;;;5.38;4.88;;;;;;;;;;6247220;23;20434;-60
2021/07/03 11:53:54;;;;;;;7.07;4.70;;;;;;;;;;6220554;23;20013;-60
2021/07/03 11:56:22;;;;;;;5.72;5.07;;;;;;;;;;6247235;23;20023;-60
2021/07/03 11:58:48;;;;;;;7.38;5.05;;;;;;;;;;6247259;23;20010;-60
2021/07/03 12:01:16;;;;;;;5.68;4.80;;;;;;;;;;6247395;23;20443;-60
2021/07/03 12:03:43;;;;;;;5.95;4.72;;;;;;;;;;6247156;23;20007;-60
2021/07/03 12:06:08;;;;;;;5.35;4.78;;;;;;;;;;6246980;23;19992;-60
2021/07/03 12:08:35;;;;;;;6.78;5.65;;;;;;;;;;6247087;23;20058;-60
2021/07/03 12:11:02;;;;;;;5.22;4.85;;;;;;;;;;6247225;23;20360;-60
2021/07/03 12:13:30;;;;;;;5.18;4.78;;;;;;;;;;6246701;23;20448;-60
2021/07/03 12:15:55;;;;;;;5.50;4.63;;;;;;;;;;6247132;23;20032;-60
2021/07/03 12:18:25;;;;;;;5.47;4.90;;;;;;;;;;6247243;23;20000;-60
2021/07/03 12:21:06;;;;;;;6.25;5.70;;;;;;;;;;6246515;23;20030;-60
2021/07/03 12:23:32;;;;;;;6.40;5.20;;;;;;;;;;6247107;23;20011;-60
2021/07/03 12:26:00;;;;;;;8.65;5.43;;;;;;;;;;6247124;23;19992;-60
2021/07/03 12:28:26;;;;;;;7.28;5.68;;;;;;;;;;6247178;23;20004;-60
2021/07/03 12:30:51;;;;;;;6.95;6.15;;;;;;;;;;6246898;23;20087;-60
2021/07/03 12:33:17;;;;;;;6.25;5.65;;;;;;;;;;6246945;23;20392;-60
2021/07/03 12:35:46;;;;;;;6.70;6.10;;;;;;;;;;6246982;23;20071;-60
2021/07/03 12:38:12;;;;;;;7.53;5.97;;;;;;;;;;6246785;23;20008;-60
2021/07/03 12:40:40;;;;;;;6.10;5.55;;;;;;;;;;6246931;23;20006;-60
2021/07/03 12:43:06;;;;;;;10.15;6.57;;;;;;;;;;6246786;23;20004;-60
2021/07/03 12:45:32;;;;;;;6.60;6.00;;;;;;;;;;6246242;23;20042;-61
2021/07/03 12:48:04;;;;;;;7.40;5.80;;;;;;;;;;6219987;23;20008;-60
2021/07/03 12:50:30;;;;;;;9.50;6.70;;;;;;;;;;6246737;23;20414;-60
2021/07/03 12:53:02;;;;;;;6.47;5.88;;;;;;;;;;6246638;23;20000;-60
2021/07/03 12:55:42;;;;;;;7.75;6.32;;;;;;;;;;6246585;23;20008;-60
2021/07/03 12:58:18;;;;;;;8.97;6.37;;;;;;;;;;6246576;23;20004;-60
2021/07/03 13:00:47;;;;;;;8.50;6.80;;;;;;;;;;6246614;23;20004;-60
2021/07/03 13:03:12;;;;;;;6.97;5.93;;;;;;;;;;6220189;23;20000;-60
2021/07/03 13:05:38;;;;;;;7.45;6.15;;;;;;;;;;6220001;23;20332;-60
2021/07/03 13:08:03;;;;;;;6.50;5.90;;;;;;;;;;6246469;23;19992;-60
2021/07/03 13:10:29;;;;;;;6.80;6.10;;;;;;;;;;6246581;23;20126;-60
2021/07/03 13:12:54;;;;;;;7.85;6.00;;;;;;;;;;6219575;23;20424;-60
2021/07/03 13:15:20;;;;;;;6.80;5.88;;;;;;;;;;6246769;23;20336;-60
2021/07/03 13:17:45;;;;;;;8.15;5.45;;;;;;;;;;6219858;23;20007;-60
2021/07/03 13:20:11;;;;;;;6.60;5.95;;;;;;;;;;6246528;23;20008;-60
2021/07/03 13:22:36;;;;;;;5.88;5.35;;;;;;;;;;6246019;23;20007;-60
2021/07/03 13:25:02;;;;;;;7.13;6.50;;;;;;;;;;6246410;23;20004;-60
2021/07/03 13:27:29;;;;;;;6.30;5.55;;;;;;;;;;6246393;23;20071;-60
2021/07/03 13:29:54;;;;;;;7.75;5.60;;;;;;;;;;6246349;23;20000;-60
2021/07/03 13:32:20;;;;;;;5.97;5.47;;;;;;;;;;6246283;23;20000;-60
2021/07/03 13:34:45;;;;;;;6.85;5.47;;;;;;;;;;6246260;23;20368;-60
2021/07/03 13:37:14;;;;;;;6.50;5.90;;;;;;;;;;6219561;23;20008;-60
2021/07/03 13:39:39;;;;;;;6.47;5.80;;;;;;;;;;6219383;23;20018;-60
2021/07/03 13:42:05;;;;;;;6.85;6.05;;;;;;;;;;6246405;23;20079;-60
2021/07/03 13:44:30;;;;;;;7.55;5.90;;;;;;;;;;6246190;23;20103;-60
2021/07/03 13:46:56;;;;;;;7.20;5.85;;;;;;;;;;6219618;23;20336;-60
2021/07/03 13:49:21;;;;;;;7.00;6.35;;;;;;;;;;6246237;23;20083;-60
2021/07/03 13:51:47;;;;;;;7.90;6.50;;;;;;;;;;6219337;23;20293;-60
2021/07/03 13:54:13;;;;;;;6.57;5.97;;;;;;;;;;6219176;23;20004;-60
2021/07/03 13:56:38;;;;;;;9.98;6.85;;;;;;;;;;6246023;23;20000;-60
2021/07/03 13:59:04;;;;;;;8.65;5.65;;;;;;;;;;6246161;23;20015;-60
2021/07/03 14:01:29;;;;;;;6.35;5.75;;;;;;;;;;6246095;23;20408;-60
2021/07/03 14:03:56;;;;;;;9.60;6.28;;;;;;;;;;6245991;23;20004;-60
2021/07/03 14:06:22;;;;;;;9.27;7.07;;;;;;;;;;6245968;23;20079;-60
2021/07/03 14:08:47;;;;;;;6.72;6.03;;;;;;;;;;6246126;23;20043;-60
2021/07/03 14:11:13;;;;;;;7.85;5.95;;;;;;;;;;6245880;23;19992;-60
2021/07/03 14:13:38;;;;;;;6.75;5.97;;;;;;;;;;6218966;23;20074;-60
2021/07/03 14:16:04;;;;;;;6.60;6.03;;;;;;;;;;6246039;23;20008;-60
2021/07/03 14:18:30;;;;;;;7.93;6.03;;;;;;;;;;6245921;23;20498;-60
2021/07/03 14:20:55;;;;;;;6.35;5.72;;;;;;;;;;6246006;23;19996;-60
2021/07/03 14:23:27;;;;;;;7.10;6.00;;;;;;;;;;6245824;23;20008;-59
2021/07/03 14:25:53;;;;;;;6.80;6.03;;;;;;;;;;6245819;23;20011;-59
2021/07/03 14:28:18;;;;;;;6.72;6.00;;;;;;;;;;6245900;23;19996;-59
2021/07/03 14:30:44;;;;;;;6.78;5.82;;;;;;;;;;6245431;23;20000;-59
2021/07/03 14:33:09;;;;;;;6.07;5.50;;;;;;;;;;6246000;23;20091;-59
2021/07/03 14:35:35;;;;;;;6.53;5.97;;;;;;;;;;6219036;23;20011;-59
2021/07/03 14:38:00;;;;;;;6.68;5.82;;;;;;;;;;6245875;23;20000;-59
2021/07/03 14:40:26;;;;;;;6.28;5.68;;;;;;;;;;6245803;23;20012;-59